sensor_id;sensor_type;location;lat;lon;timestamp;pressure;altitude;pressure_sealevel;temperature;humidity
26807;BME280;14380;49.910;6.792;2023-11-21T00:01:21;98038.63;;;11.16;100.00
26807;BME280;14380;49.910;6.792;2023-11-21T00:03:50;98042.19;;;11.41;100.00
26807;BME280;14380;49.910;6.792;2023-11-21T00:06:20;98036.41;;;11.10;100.00
26807;BME280;14380;49.910;6.792;2023-11-21T00:08:52;98045.84;;;11.01;100.00
26807;BME280;14380;49.910;6.792;2023-11-21T00:11:19;98043.38;;;11.11;100.00
26807;BME280;14380;49.910;6.792;2023-11-21T00:13:46;98040.31;;;11.04;100.00
26807;BME280;14380;49.910;6.792;2023-11-21T00:16:18;98046.22;;;11.21;100.00
26807;BME280;14380;49.910;6.792;2023-11-21T00:18:51;98047.91;;;11.35;100.00
26807;BME280;14380;49.910;6.792;2023-11-21T00:21:21;98049.22;;;11.03;100.00
26807;BME280;14380;49.910;6.792;2023-11-21T00:23:52;98044.66;;;11.18;100.00
26807;BME280;14380;49.910;6.792;2023-11-21T00:26:18;98055.31;;;11.16;100.00
26807;BME280;14380;49.910;6.792;2023-11-21T00:28:45;98056.28;;;11.15;100.00
26807;BME280;14380;49.910;6.792;2023-11-21T00:31:14;98062.00;;;11.22;100.00
26807;BME280;14380;49.910;6.792;2023-11-21T00:33:41;98057.97;;;11.16;100.00
26807;BME280;14380;49.910;6.792;2023-11-21T00:36:10;98056.16;;;11.04;100.00
26807;BME280;14380;49.910;6.792;2023-11-21T00:38:43;98055.09;;;11.33;100.00
26807;BME280;14380;49.910;6.792;2023-11-21T00:41:10;98059.34;;;11.22;100.00
26807;BME280;14380;49.910;6.792;2023-11-21T00:43:39;98055.66;;;11.12;100.00
26807;BME280;14380;49.910;6.792;2023-11-21T00:46:06;98058.91;;;11.15;100.00
26807;BME280;14380;49.910;6.792;2023-11-21T00:48:33;98055.44;;;11.28;100.00
26807;BME280;14380;49.910;6.792;2023-11-21T00:51:02;98058.16;;;11.26;100.00
26807;BME280;14380;49.910;6.792;2023-11-21T00:53:30;98060.81;;;11.26;100.00
26807;BME280;14380;49.910;6.792;2023-11-21T00:55:57;98063.66;;;10.97;100.00
26807;BME280;14380;49.910;6.792;2023-11-21T00:58:23;98070.88;;;11.21;100.00
26807;BME280;14380;49.910;6.792;2023-11-21T01:00:50;98073.31;;;11.24;100.00
26807;BME280;14380;49.910;6.792;2023-11-21T01:03:16;98076.44;;;11.29;100.00
26807;BME280;14380;49.910;6.792;2023-11-21T01:05:43;98077.31;;;11.30;100.00
26807;BME280;14380;49.910;6.792;2023-11-21T01:08:09;98080.28;;;11.25;100.00
26807;BME280;14380;49.910;6.792;2023-11-21T01:10:37;98084.09;;;11.21;100.00
26807;BME280;14380;49.910;6.792;2023-11-21T01:13:04;98085.44;;;11.14;100.00
26807;BME280;14380;49.910;6.792;2023-11-21T01:15:31;98091.81;;;11.24;100.00
26807;BME280;14380;49.910;6.792;2023-11-21T01:17:57;98091.25;;;11.32;100.00
26807;BME280;14380;49.910;6.792;2023-11-21T01:20:24;98089.03;;;11.26;100.00
26807;BME280;14380;49.910;6.792;2023-11-21T01:22:51;98098.66;;;11.01;100.00
26807;BME280;14380;49.910;6.792;2023-11-21T01:25:19;98111.00;;;11.26;100.00
26807;BME280;14380;49.910;6.792;2023-11-21T01:27:47;98111.25;;;11.23;100.00
26807;BME280;14380;49.910;6.792;2023-11-21T01:30:14;98115.25;;;11.29;100.00
26807;BME280;14380;49.910;6.792;2023-11-21T01:32:41;98116.09;;;11.29;100.00
26807;BME280;14380;49.910;6.792;2023-11-21T01:35:09;98117.25;;;10.99;100.00
26807;BME280;14380;49.910;6.792;2023-11-21T01:37:36;98128.56;;;11.14;100.00
26807;BME280;14380;49.910;6.792;2023-11-21T01:40:03;98128.69;;;11.13;100.00
26807;BME280;14380;49.910;6.792;2023-11-21T01:42:33;98137.03;;;11.20;100.00
26807;BME280;14380;49.910;6.792;2023-11-21T01:45:01;98137.53;;;10.99;100.00
26807;BME280;14380;49.910;6.792;2023-11-21T01:47:30;98134.69;;;11.02;100.00
26807;BME280;14380;49.910;6.792;2023-11-21T01:49:56;98146.50;;;11.09;100.00
26807;BME280;14380;49.910;6.792;2023-11-21T01:52:23;98149.25;;;10.95;100.00
26807;BME280;14380;49.910;6.792;2023-11-21T01:54:51;98144.59;;;10.85;100.00
26807;BME280;14380;49.910;6.792;2023-11-21T01:57:20;98144.47;;;10.87;100.00
26807;BME280;14380;49.910;6.792;2023-11-21T01:59:48;98150.84;;;10.97;100.00
26807;BME280;14380;49.910;6.792;2023-11-21T02:02:16;98136.31;;;10.77;100.00
26807;BME280;14380;49.910;6.792;2023-11-21T02:04:43;98146.81;;;10.92;100.00
26807;BME280;14380;49.910;6.792;2023-11-21T02:07:09;98145.75;;;10.94;100.00
26807;BME280;14380;49.910;6.792;2023-11-21T02:09:36;98147.41;;;10.82;100.00
26807;BME280;14380;49.910;6.792;2023-11-21T02:12:04;98149.88;;;10.85;100.00
26807;BME280;14380;49.910;6.792;2023-11-21T02:14:31;98153.59;;;10.96;100.00
26807;BME280;14380;49.910;6.792;2023-11-21T02:16:57;98153.91;;;11.04;100.00
26807;BME280;14380;49.910;6.792;2023-11-21T02:19:25;98154.53;;;10.95;100.00
26807;BME280;14380;49.910;6.792;2023-11-21T02:21:52;98164.06;;;11.10;100.00
26807;BME280;14380;49.910;6.792;2023-11-21T02:24:21;98167.34;;;11.01;100.00
26807;BME280;14380;49.910;6.792;2023-11-21T02:26:48;98170.88;;;10.87;100.00
26807;BME280;14380;49.910;6.792;2023-11-21T02:29:16;98169.94;;;10.88;100.00
26807;BME280;14380;49.910;6.792;2023-11-21T02:31:44;98170.59;;;11.05;100.00
26807;BME280;14380;49.910;6.792;2023-11-21T02:34:17;98175.03;;;11.04;100.00
26807;BME280;14380;49.910;6.792;2023-11-21T02:36:44;98177.09;;;10.86;100.00
26807;BME280;14380;49.910;6.792;2023-11-21T02:39:11;98183.47;;;10.96;100.00
26807;BME280;14380;49.910;6.792;2023-11-21T02:41:39;98185.97;;;10.85;100.00
26807;BME280;14380;49.910;6.792;2023-11-21T02:44:06;98185.91;;;10.99;100.00
26807;BME280;14380;49.910;6.792;2023-11-21T02:46:33;98190.78;;;10.93;100.00
26807;BME280;14380;49.910;6.792;2023-11-21T02:49:00;98191.38;;;10.83;100.00
26807;BME280;14380;49.910;6.792;2023-11-21T02:51:27;98199.66;;;10.64;100.00
26807;BME280;14380;49.910;6.792;2023-11-21T02:53:53;98205.66;;;10.94;100.00
26807;BME280;14380;49.910;6.792;2023-11-21T02:56:20;98197.91;;;10.78;100.00
26807;BME280;14380;49.910;6.792;2023-11-21T02:58:48;98196.22;;;10.77;100.00
26807;BME280;14380;49.910;6.792;2023-11-21T03:01:14;98208.31;;;10.66;100.00
26807;BME280;14380;49.910;6.792;2023-11-21T03:03:42;98202.63;;;10.73;100.00
26807;BME280;14380;49.910;6.792;2023-11-21T03:06:08;98199.06;;;10.74;100.00
26807;BME280;14380;49.910;6.792;2023-11-21T03:08:35;98201.28;;;10.52;100.00
26807;BME280;14380;49.910;6.792;2023-11-21T03:11:01;98201.16;;;10.68;100.00
26807;BME280;14380;49.910;6.792;2023-11-21T03:13:29;98203.88;;;10.67;100.00
26807;BME280;14380;49.910;6.792;2023-11-21T03:15:57;98209.78;;;10.43;100.00
26807;BME280;14380;49.910;6.792;2023-11-21T03:18:23;98206.25;;;10.57;100.00
26807;BME280;14380;49.910;6.792;2023-11-21T03:20:52;98205.47;;;10.69;100.00
26807;BME280;14380;49.910;6.792;2023-11-21T03:23:19;98211.94;;;10.78;100.00
26807;BME280;14380;49.910;6.792;2023-11-21T03:25:45;98219.81;;;10.65;100.00
26807;BME280;14380;49.910;6.792;2023-11-21T03:28:12;98218.75;;;10.68;100.00
26807;BME280;14380;49.910;6.792;2023-11-21T03:30:38;98220.66;;;10.66;100.00
26807;BME280;14380;49.910;6.792;2023-11-21T03:33:06;98231.72;;;10.85;100.00
26807;BME280;14380;49.910;6.792;2023-11-21T03:35:33;98222.47;;;10.65;100.00
26807;BME280;14380;49.910;6.792;2023-11-21T03:37:59;98230.13;;;10.55;100.00
26807;BME280;14380;49.910;6.792;2023-11-21T03:40:26;98227.63;;;10.67;100.00
26807;BME280;14380;49.910;6.792;2023-11-21T03:42:52;98231.31;;;10.64;100.00
26807;BME280;14380;49.910;6.792;2023-11-21T03:45:19;98239.25;;;10.64;100.00
26807;BME280;14380;49.910;6.792;2023-11-21T03:47:46;98236.50;;;10.66;100.00
26807;BME280;14380;49.910;6.792;2023-11-21T03:50:14;98238.06;;;10.55;100.00
26807;BME280;14380;49.910;6.792;2023-11-21T03:52:40;98244.28;;;10.54;100.00
26807;BME280;14380;49.910;6.792;2023-11-21T03:55:08;98242.50;;;10.11;100.00
26807;BME280;14380;49.910;6.792;2023-11-21T03:57:35;98245.59;;;10.47;100.00
26807;BME280;14380;49.910;6.792;2023-11-21T04:00:02;98255.78;;;10.53;100.00
26807;BME280;14380;49.910;6.792;2023-11-21T04:02:33;98251.78;;;10.61;100.00
26807;BME280;14380;49.910;6.792;2023-11-21T04:05:00;98250.53;;;10.81;100.00
26807;BME280;14380;49.910;6.792;2023-11-21T04:07:28;98257.06;;;10.61;100.00
26807;BME280;14380;49.910;6.792;2023-11-21T04:09:54;98256.59;;;10.54;100.00
26807;BME280;14380;49.910;6.792;2023-11-21T04:12:21;98269.44;;;10.46;100.00
26807;BME280;14380;49.910;6.792;2023-11-21T04:14:47;98264.53;;;10.54;100.00
26807;BME280;14380;49.910;6.792;2023-11-21T04:17:14;98269.81;;;10.54;100.00
26807;BME280;14380;49.910;6.792;2023-11-21T04:19:40;98273.59;;;10.35;100.00
26807;BME280;14380;49.910;6.792;2023-11-21T04:22:07;98273.78;;;10.47;100.00
26807;BME280;14380;49.910;6.792;2023-11-21T04:24:35;98282.44;;;10.49;100.00
26807;BME280;14380;49.910;6.792;2023-11-21T04:27:01;98286.31;;;10.43;100.00
26807;BME280;14380;49.910;6.792;2023-11-21T04:29:28;98286.56;;;9.95;100.00
26807;BME280;14380;49.910;6.792;2023-11-21T04:31:55;98294.09;;;10.01;100.00
26807;BME280;14380;49.910;6.792;2023-11-21T04:34:21;98295.16;;;10.13;100.00
26807;BME280;14380;49.910;6.792;2023-11-21T04:36:49;98307.97;;;10.19;100.00
26807;BME280;14380;49.910;6.792;2023-11-21T04:39:16;98312.41;;;10.33;100.00
26807;BME280;14380;49.910;6.792;2023-11-21T04:41:44;98311.53;;;10.18;100.00
26807;BME280;14380;49.910;6.792;2023-11-21T04:44:10;98307.78;;;10.22;100.00
26807;BME280;14380;49.910;6.792;2023-11-21T04:46:37;98318.69;;;10.16;100.00
26807;BME280;14380;49.910;6.792;2023-11-21T04:49:03;98323.16;;;10.30;100.00
26807;BME280;14380;49.910;6.792;2023-11-21T04:51:30;98323.41;;;9.96;100.00
26807;BME280;14380;49.910;6.792;2023-11-21T04:53:57;98324.81;;;10.02;100.00
26807;BME280;14380;49.910;6.792;2023-11-21T04:56:23;98332.66;;;10.18;100.00
26807;BME280;14380;49.910;6.792;2023-11-21T04:58:53;98329.63;;;9.95;100.00
26807;BME280;14380;49.910;6.792;2023-11-21T05:01:19;98329.31;;;9.86;100.00
26807;BME280;14380;49.910;6.792;2023-11-21T05:03:46;98329.94;;;10.20;100.00
26807;BME280;14380;49.910;6.792;2023-11-21T05:06:14;98334.34;;;10.19;100.00
26807;BME280;14380;49.910;6.792;2023-11-21T05:08:41;98338.22;;;10.14;100.00
26807;BME280;14380;49.910;6.792;2023-11-21T05:11:07;98332.47;;;10.07;100.00
26807;BME280;14380;49.910;6.792;2023-11-21T05:13:35;98333.03;;;10.12;100.00
26807;BME280;14380;49.910;6.792;2023-11-21T05:16:04;98341.75;;;10.58;100.00
26807;BME280;14380;49.910;6.792;2023-11-21T05:18:31;98336.66;;;10.40;100.00
26807;BME280;14380;49.910;6.792;2023-11-21T05:20:58;98338.78;;;10.19;100.00
26807;BME280;14380;49.910;6.792;2023-11-21T05:23:24;98336.47;;;9.98;100.00
26807;BME280;14380;49.910;6.792;2023-11-21T05:25:51;98341.16;;;10.38;100.00
26807;BME280;14380;49.910;6.792;2023-11-21T05:28:17;98342.19;;;10.35;100.00
26807;BME280;14380;49.910;6.792;2023-11-21T05:30:44;98347.47;;;10.35;100.00
26807;BME280;14380;49.910;6.792;2023-11-21T05:33:12;98343.72;;;10.39;100.00
26807;BME280;14380;49.910;6.792;2023-11-21T05:35:38;98347.06;;;10.12;100.00
26807;BME280;14380;49.910;6.792;2023-11-21T05:38:05;98352.44;;;10.11;100.00
26807;BME280;14380;49.910;6.792;2023-11-21T05:40:32;98353.38;;;10.10;100.00
26807;BME280;14380;49.910;6.792;2023-11-21T05:42:58;98350.09;;;10.21;100.00
26807;BME280;14380;49.910;6.792;2023-11-21T05:45:25;98356.84;;;10.10;100.00
26807;BME280;14380;49.910;6.792;2023-11-21T05:47:52;98359.09;;;10.02;100.00
26807;BME280;14380;49.910;6.792;2023-11-21T05:50:20;98355.63;;;10.16;100.00
26807;BME280;14380;49.910;6.792;2023-11-21T05:52:48;98361.19;;;10.11;100.00
26807;BME280;14380;49.910;6.792;2023-11-21T05:55:14;98360.34;;;10.11;100.00
26807;BME280;14380;49.910;6.792;2023-11-21T05:57:43;98371.00;;;10.09;100.00
26807;BME280;14380;49.910;6.792;2023-11-21T06:00:11;98371.97;;;10.23;100.00
26807;BME280;14380;49.910;6.792;2023-11-21T06:02:43;98367.41;;;10.10;100.00
26807;BME280;14380;49.910;6.792;2023-11-21T06:05:10;98366.88;;;10.20;100.00
26807;BME280;14380;49.910;6.792;2023-11-21T06:07:38;98371.47;;;10.16;100.00
26807;BME280;14380;49.910;6.792;2023-11-21T06:10:06;98378.44;;;10.17;100.00
26807;BME280;14380;49.910;6.792;2023-11-21T06:12:36;98382.28;;;10.11;100.00
26807;BME280;14380;49.910;6.792;2023-11-21T06:15:03;98380.59;;;10.10;100.00
26807;BME280;14380;49.910;6.792;2023-11-21T06:17:31;98385.81;;;10.12;100.00
26807;BME280;14380;49.910;6.792;2023-11-21T06:19:57;98389.56;;;10.08;100.00
26807;BME280;14380;49.910;6.792;2023-11-21T06:22:24;98393.03;;;10.08;100.00
26807;BME280;14380;49.910;6.792;2023-11-21T06:24:52;98401.09;;;9.91;100.00
26807;BME280;14380;49.910;6.792;2023-11-21T06:27:18;98397.25;;;9.96;100.00
26807;BME280;14380;49.910;6.792;2023-11-21T06:29:45;98403.81;;;9.89;100.00
26807;BME280;14380;49.910;6.792;2023-11-21T06:32:12;98403.88;;;10.04;100.00
26807;BME280;14380;49.910;6.792;2023-11-21T06:34:41;98405.28;;;10.09;100.00
26807;BME280;14380;49.910;6.792;2023-11-21T06:37:08;98409.56;;;9.96;100.00
26807;BME280;14380;49.910;6.792;2023-11-21T06:39:34;98420.97;;;9.96;100.00
26807;BME280;14380;49.910;6.792;2023-11-21T06:42:02;98423.13;;;9.90;100.00
26807;BME280;14380;49.910;6.792;2023-11-21T06:44:29;98432.75;;;9.91;100.00
26807;BME280;14380;49.910;6.792;2023-11-21T06:46:56;98424.97;;;10.04;100.00
26807;BME280;14380;49.910;6.792;2023-11-21T06:49:22;98429.66;;;9.99;100.00
26807;BME280;14380;49.910;6.792;2023-11-21T06:51:49;98430.47;;;9.85;100.00
26807;BME280;14380;49.910;6.792;2023-11-21T06:54:15;98441.34;;;9.78;100.00
26807;BME280;14380;49.910;6.792;2023-11-21T06:56:42;98444.06;;;9.77;100.00
26807;BME280;14380;49.910;6.792;2023-11-21T06:59:12;98447.47;;;9.79;100.00
26807;BME280;14380;49.910;6.792;2023-11-21T07:01:39;98452.50;;;9.84;100.00
26807;BME280;14380;49.910;6.792;2023-11-21T07:04:07;98468.50;;;9.80;100.00
26807;BME280;14380;49.910;6.792;2023-11-21T07:06:34;98476.06;;;9.71;100.00
26807;BME280;14380;49.910;6.792;2023-11-21T07:09:01;98479.78;;;9.82;100.00
26807;BME280;14380;49.910;6.792;2023-11-21T07:11:28;98475.47;;;9.81;100.00
26807;BME280;14380;49.910;6.792;2023-11-21T07:13:55;98482.16;;;9.87;100.00
26807;BME280;14380;49.910;6.792;2023-11-21T07:16:23;98487.56;;;10.00;100.00
26807;BME280;14380;49.910;6.792;2023-11-21T07:18:50;98498.66;;;10.07;100.00
26807;BME280;14380;49.910;6.792;2023-11-21T07:21:17;98502.56;;;10.00;100.00
26807;BME280;14380;49.910;6.792;2023-11-21T07:23:43;98510.56;;;9.98;100.00
26807;BME280;14380;49.910;6.792;2023-11-21T07:26:10;98503.94;;;9.91;100.00
26807;BME280;14380;49.910;6.792;2023-11-21T07:28:37;98504.59;;;9.94;100.00
26807;BME280;14380;49.910;6.792;2023-11-21T07:31:04;98515.13;;;10.10;100.00
26807;BME280;14380;49.910;6.792;2023-11-21T07:33:32;98513.78;;;10.03;100.00
26807;BME280;14380;49.910;6.792;2023-11-21T07:35:59;98510.16;;;10.20;100.00
26807;BME280;14380;49.910;6.792;2023-11-21T07:38:26;98519.31;;;9.99;100.00
26807;BME280;14380;49.910;6.792;2023-11-21T07:40:54;98518.63;;;9.95;100.00
26807;BME280;14380;49.910;6.792;2023-11-21T07:43:20;98528.25;;;10.12;100.00
26807;BME280;14380;49.910;6.792;2023-11-21T07:45:47;98523.75;;;10.14;100.00
26807;BME280;14380;49.910;6.792;2023-11-21T07:48:14;98525.03;;;10.07;100.00
26807;BME280;14380;49.910;6.792;2023-11-21T07:50:42;98530.63;;;10.17;100.00
26807;BME280;14380;49.910;6.792;2023-11-21T07:53:08;98532.03;;;10.22;100.00
26807;BME280;14380;49.910;6.792;2023-11-21T07:55:35;98532.91;;;10.39;100.00
26807;BME280;14380;49.910;6.792;2023-11-21T07:58:01;98543.88;;;10.31;100.00
26807;BME280;14380;49.910;6.792;2023-11-21T08:00:29;98544.88;;;10.29;100.00
26807;BME280;14380;49.910;6.792;2023-11-21T08:02:56;98554.56;;;9.81;100.00
26807;BME280;14380;49.910;6.792;2023-11-21T08:05:22;98557.47;;;10.23;100.00
26807;BME280;14380;49.910;6.792;2023-11-21T08:07:51;98550.69;;;10.35;100.00
26807;BME280;14380;49.910;6.792;2023-11-21T08:10:18;98566.16;;;10.25;100.00
26807;BME280;14380;49.910;6.792;2023-11-21T08:12:45;98568.47;;;10.32;100.00
26807;BME280;14380;49.910;6.792;2023-11-21T08:15:13;98564.28;;;10.27;100.00
26807;BME280;14380;49.910;6.792;2023-11-21T08:17:40;98570.22;;;10.01;100.00
26807;BME280;14380;49.910;6.792;2023-11-21T08:20:07;98556.53;;;10.24;100.00
26807;BME280;14380;49.910;6.792;2023-11-21T08:22:37;98561.41;;;10.48;100.00
26807;BME280;14380;49.910;6.792;2023-11-21T08:25:08;98572.31;;;10.26;100.00
26807;BME280;14380;49.910;6.792;2023-11-21T08:27:34;98572.78;;;10.49;100.00
26807;BME280;14380;49.910;6.792;2023-11-21T08:30:02;98574.59;;;10.48;100.00
26807;BME280;14380;49.910;6.792;2023-11-21T08:32:28;98572.13;;;10.76;100.00
26807;BME280;14380;49.910;6.792;2023-11-21T08:34:55;98569.97;;;10.82;100.00
26807;BME280;14380;49.910;6.792;2023-11-21T08:37:22;98583.44;;;10.47;100.00
26807;BME280;14380;49.910;6.792;2023-11-21T08:39:49;98576.06;;;10.68;100.00
26807;BME280;14380;49.910;6.792;2023-11-21T08:42:19;98577.25;;;10.63;100.00
26807;BME280;14380;49.910;6.792;2023-11-21T08:44:46;98578.31;;;10.60;100.00
26807;BME280;14380;49.910;6.792;2023-11-21T08:47:12;98580.06;;;10.45;100.00
26807;BME280;14380;49.910;6.792;2023-11-21T08:49:39;98585.69;;;10.69;100.00
26807;BME280;14380;49.910;6.792;2023-11-21T08:52:06;98574.59;;;10.93;100.00
26807;BME280;14380;49.910;6.792;2023-11-21T08:54:32;98589.88;;;10.88;100.00
26807;BME280;14380;49.910;6.792;2023-11-21T08:56:59;98592.91;;;10.96;100.00
26807;BME280;14380;49.910;6.792;2023-11-21T08:59:27;98586.13;;;11.07;100.00
26807;BME280;14380;49.910;6.792;2023-11-21T09:01:53;98593.84;;;10.95;100.00
26807;BME280;14380;49.910;6.792;2023-11-21T09:04:20;98594.91;;;10.93;100.00
26807;BME280;14380;49.910;6.792;2023-11-21T09:06:46;98600.50;;;11.17;100.00
26807;BME280;14380;49.910;6.792;2023-11-21T09:09:13;98607.34;;;11.05;100.00
26807;BME280;14380;49.910;6.792;2023-11-21T09:11:40;98616.09;;;10.77;100.00
26807;BME280;14380;49.910;6.792;2023-11-21T09:14:06;98616.28;;;10.88;100.00
26807;BME280;14380;49.910;6.792;2023-11-21T09:16:35;98620.38;;;11.08;100.00
26807;BME280;14380;49.910;6.792;2023-11-21T09:19:02;98619.66;;;11.21;100.00
26807;BME280;14380;49.910;6.792;2023-11-21T09:21:30;98616.66;;;11.41;100.00
26807;BME280;14380;49.910;6.792;2023-11-21T09:23:57;98621.09;;;11.41;100.00
26807;BME280;14380;49.910;6.792;2023-11-21T09:26:23;98626.75;;;11.20;100.00
26807;BME280;14380;49.910;6.792;2023-11-21T09:28:50;98627.78;;;11.32;100.00
26807;BME280;14380;49.910;6.792;2023-11-21T09:31:16;98633.66;;;11.37;100.00
26807;BME280;14380;49.910;6.792;2023-11-21T09:33:46;98634.19;;;11.28;100.00
26807;BME280;14380;49.910;6.792;2023-11-21T09:36:13;98639.03;;;11.50;100.00
26807;BME280;14380;49.910;6.792;2023-11-21T09:38:40;98642.16;;;11.42;100.00
26807;BME280;14380;49.910;6.792;2023-11-21T09:41:13;98645.16;;;11.36;100.00
26807;BME280;14380;49.910;6.792;2023-11-21T09:43:46;98658.84;;;11.43;100.00
26807;BME280;14380;49.910;6.792;2023-11-21T09:46:13;98657.53;;;11.36;100.00
26807;BME280;14380;49.910;6.792;2023-11-21T09:48:47;98663.09;;;11.31;100.00
26807;BME280;14380;49.910;6.792;2023-11-21T09:51:18;98658.81;;;11.28;100.00
26807;BME280;14380;49.910;6.792;2023-11-21T09:53:49;98665.94;;;11.42;100.00
26807;BME280;14380;49.910;6.792;2023-11-21T09:56:17;98665.69;;;11.16;100.00
26807;BME280;14380;49.910;6.792;2023-11-21T09:58:51;98658.31;;;11.52;100.00
26807;BME280;14380;49.910;6.792;2023-11-21T10:01:18;98665.38;;;11.37;100.00
26807;BME280;14380;49.910;6.792;2023-11-21T10:03:47;98661.25;;;11.48;100.00
26807;BME280;14380;49.910;6.792;2023-11-21T10:06:14;98669.28;;;11.60;100.00
26807;BME280;14380;49.910;6.792;2023-11-21T10:08:41;98674.00;;;11.70;100.00
26807;BME280;14380;49.910;6.792;2023-11-21T10:11:10;98671.78;;;11.33;100.00
26807;BME280;14380;49.910;6.792;2023-11-21T10:13:39;98675.13;;;11.51;100.00
26807;BME280;14380;49.910;6.792;2023-11-21T10:16:07;98679.47;;;11.52;100.00
26807;BME280;14380;49.910;6.792;2023-11-21T10:18:37;98673.13;;;11.55;100.00
26807;BME280;14380;49.910;6.792;2023-11-21T10:21:07;98677.38;;;11.57;100.00
26807;BME280;14380;49.910;6.792;2023-11-21T10:23:34;98682.66;;;11.43;100.00
26807;BME280;14380;49.910;6.792;2023-11-21T10:26:01;98681.06;;;11.69;100.00
26807;BME280;14380;49.910;6.792;2023-11-21T10:28:27;98680.41;;;11.80;100.00
26807;BME280;14380;49.910;6.792;2023-11-21T10:30:54;98682.28;;;11.78;100.00
26807;BME280;14380;49.910;6.792;2023-11-21T10:33:27;98692.88;;;11.93;100.00
26807;BME280;14380;49.910;6.792;2023-11-21T10:35:54;98691.19;;;11.92;100.00
26807;BME280;14380;49.910;6.792;2023-11-21T10:38:22;98690.13;;;11.94;100.00
26807;BME280;14380;49.910;6.792;2023-11-21T10:40:50;98687.22;;;11.99;100.00
26807;BME280;14380;49.910;6.792;2023-11-21T10:43:17;98689.00;;;11.98;100.00
26807;BME280;14380;49.910;6.792;2023-11-21T10:45:44;98686.75;;;12.07;100.00
26807;BME280;14380;49.910;6.792;2023-11-21T10:48:12;98694.09;;;11.72;100.00
26807;BME280;14380;49.910;6.792;2023-11-21T10:50:40;98689.50;;;12.05;100.00
26807;BME280;14380;49.910;6.792;2023-11-21T10:53:07;98682.28;;;12.22;100.00
26807;BME280;14380;49.910;6.792;2023-11-21T10:55:35;98684.97;;;12.07;100.00
26807;BME280;14380;49.910;6.792;2023-11-21T10:58:02;98688.91;;;12.14;100.00
26807;BME280;14380;49.910;6.792;2023-11-21T11:00:31;98694.88;;;12.32;100.00
26807;BME280;14380;49.910;6.792;2023-11-21T11:02:59;98682.41;;;12.20;100.00
26807;BME280;14380;49.910;6.792;2023-11-21T11:05:27;98681.16;;;12.26;100.00
26807;BME280;14380;49.910;6.792;2023-11-21T11:07:58;98688.53;;;12.62;100.00
26807;BME280;14380;49.910;6.792;2023-11-21T11:10:26;98681.94;;;12.55;100.00
26807;BME280;14380;49.910;6.792;2023-11-21T11:12:56;98686.03;;;12.74;100.00
26807;BME280;14380;49.910;6.792;2023-11-21T11:15:24;98682.63;;;12.72;100.00
26807;BME280;14380;49.910;6.792;2023-11-21T11:17:51;98679.47;;;12.79;100.00
26807;BME280;14380;49.910;6.792;2023-11-21T11:20:23;98679.81;;;12.33;100.00
26807;BME280;14380;49.910;6.792;2023-11-21T11:22:57;98677.56;;;12.54;100.00
26807;BME280;14380;49.910;6.792;2023-11-21T11:25:37;98676.56;;;12.42;100.00
26807;BME280;14380;49.910;6.792;2023-11-21T11:28:12;98681.56;;;12.47;100.00
26807;BME280;14380;49.910;6.792;2023-11-21T11:30:49;98685.00;;;12.89;100.00
26807;BME280;14380;49.910;6.792;2023-11-21T11:33:27;98680.78;;;12.59;100.00
26807;BME280;14380;49.910;6.792;2023-11-21T11:36:03;98683.84;;;12.93;100.00
26807;BME280;14380;49.910;6.792;2023-11-21T11:38:33;98677.97;;;12.75;100.00
26807;BME280;14380;49.910;6.792;2023-11-21T11:41:02;98679.16;;;12.84;100.00
26807;BME280;14380;49.910;6.792;2023-11-21T11:43:31;98682.34;;;12.89;100.00
26807;BME280;14380;49.910;6.792;2023-11-21T11:46:05;98680.25;;;12.94;100.00
26807;BME280;14380;49.910;6.792;2023-11-21T11:48:34;98679.16;;;12.84;100.00
26807;BME280;14380;49.910;6.792;2023-11-21T11:51:04;98687.91;;;12.99;100.00
26807;BME280;14380;49.910;6.792;2023-11-21T11:53:35;98689.50;;;13.02;100.00
26807;BME280;14380;49.910;6.792;2023-11-21T11:56:22;98690.88;;;13.07;100.00
26807;BME280;14380;49.910;6.792;2023-11-21T11:58:53;98687.56;;;12.91;100.00
26807;BME280;14380;49.910;6.792;2023-11-21T12:01:20;98686.09;;;13.00;100.00
26807;BME280;14380;49.910;6.792;2023-11-21T12:07:04;98684.69;;;13.21;100.00
26807;BME280;14380;49.910;6.792;2023-11-21T12:09:33;98679.25;;;13.10;100.00
26807;BME280;14380;49.910;6.792;2023-11-21T12:12:02;98681.69;;;13.26;99.67
26807;BME280;14380;49.910;6.792;2023-11-21T12:14:30;98682.34;;;13.30;100.00
26807;BME280;14380;49.910;6.792;2023-11-21T12:16:57;98681.28;;;13.19;100.00
26807;BME280;14380;49.910;6.792;2023-11-21T12:19:25;98685.19;;;13.27;98.08
26807;BME280;14380;49.910;6.792;2023-11-21T12:21:51;98684.19;;;13.42;100.00
26807;BME280;14380;49.910;6.792;2023-11-21T12:24:18;98696.94;;;13.09;100.00
26807;BME280;14380;49.910;6.792;2023-11-21T12:26:45;98690.06;;;13.20;99.25
26807;BME280;14380;49.910;6.792;2023-11-21T12:29:11;98702.00;;;13.00;94.87
26807;BME280;14380;49.910;6.792;2023-11-21T12:31:39;98710.84;;;12.73;96.98
26807;BME280;14380;49.910;6.792;2023-11-21T12:34:06;98709.34;;;13.09;96.76
26807;BME280;14380;49.910;6.792;2023-11-21T12:36:37;98714.47;;;13.25;99.15
26807;BME280;14380;49.910;6.792;2023-11-21T12:39:03;98717.53;;;13.19;93.67
26807;BME280;14380;49.910;6.792;2023-11-21T12:41:30;98726.81;;;12.99;92.50
26807;BME280;14380;49.910;6.792;2023-11-21T12:43:56;98727.72;;;12.85;99.14
26807;BME280;14380;49.910;6.792;2023-11-21T12:49:00;98731.63;;;12.79;94.50
26807;BME280;14380;49.910;6.792;2023-11-21T12:51:30;98734.69;;;12.73;93.42
26807;BME280;14380;49.910;6.792;2023-11-21T12:54:02;98731.94;;;13.15;93.87
26807;BME280;14380;49.910;6.792;2023-11-21T12:56:28;98732.28;;;13.23;93.01
26807;BME280;14380;49.910;6.792;2023-11-21T12:58:55;98737.59;;;13.23;96.75